createdAt,value
2019-03-06T00:00:21.313Z,1002.24
2019-03-06T00:01:21.296Z,1002.23
2019-03-06T00:02:21.263Z,1002.25
2019-03-06T00:03:21.243Z,1002.22
2019-03-06T00:04:21.225Z,1002.16
2019-03-06T00:05:21.195Z,1002.22
2019-03-06T00:06:21.176Z,1002.20
2019-03-06T00:07:21.154Z,1002.15
2019-03-06T00:08:21.134Z,1002.19
2019-03-06T00:09:21.112Z,1002.21
2019-03-06T00:10:21.096Z,1002.21
2019-03-06T00:11:21.071Z,1002.22
2019-03-06T00:12:21.048Z,1002.26
2019-03-06T00:13:21.031Z,1002.22
2019-03-06T00:14:21.005Z,1002.24
2019-03-06T00:15:20.987Z,1002.27
2019-03-06T00:16:20.961Z,1002.23
2019-03-06T00:17:20.943Z,1002.20
2019-03-06T00:18:20.920Z,1002.21
2019-03-06T00:19:20.897Z,1002.20
2019-03-06T00:20:20.883Z,1002.14
2019-03-06T00:21:20.863Z,1002.18
2019-03-06T00:22:20.834Z,1002.12
2019-03-06T00:23:20.824Z,1002.18
2019-03-06T00:24:20.790Z,1002.16
2019-03-06T00:25:20.779Z,1002.18
2019-03-06T00:26:20.751Z,1002.20
2019-03-06T00:27:20.729Z,1002.16
2019-03-06T00:28:20.710Z,1002.12
2019-03-06T00:29:20.687Z,1002.15
2019-03-06T00:30:20.663Z,1002.13
2019-03-06T00:31:20.640Z,1002.12
2019-03-06T00:32:20.622Z,1002.09
2019-03-06T00:33:20.595Z,1002.10
2019-03-06T00:34:20.576Z,1002.15
2019-03-06T00:35:20.557Z,1002.15
2019-03-06T00:36:20.533Z,1002.19
2019-03-06T00:37:20.513Z,1002.18
2019-03-06T00:38:20.494Z,1002.17
2019-03-06T00:39:20.467Z,1002.13
2019-03-06T00:40:20.446Z,1002.13
2019-03-06T00:41:20.425Z,1002.10
2019-03-06T00:42:20.406Z,1002.11
2019-03-06T00:43:20.382Z,1002.11
2019-03-06T00:44:20.359Z,1002.07
2019-03-06T00:45:20.339Z,1002.05
2019-03-06T00:46:20.317Z,1002.06
2019-03-06T00:47:20.299Z,1002.07
2019-03-06T00:48:20.274Z,1002.05
2019-03-06T00:49:20.253Z,1002.05
2019-03-06T00:50:20.240Z,1002.09
2019-03-06T00:51:20.217Z,1002.04
2019-03-06T00:52:20.189Z,1002.09
2019-03-06T00:53:20.171Z,1002.04
2019-03-06T00:54:20.145Z,1002.05
2019-03-06T00:55:20.121Z,1002.03
2019-03-06T00:56:20.099Z,1002.02
2019-03-06T00:57:20.079Z,1002.02
2019-03-06T00:58:20.056Z,1002.02
2019-03-06T00:59:20.042Z,1002.04
2019-03-06T01:00:20.023Z,1002.02
2019-03-06T01:01:19.997Z,1002.00
2019-03-06T01:02:19.967Z,1002.02
2019-03-06T01:03:19.947Z,1002.05
2019-03-06T01:04:19.923Z,1002.02
2019-03-06T01:05:19.910Z,1002.04
2019-03-06T01:06:19.879Z,1002.03
2019-03-06T01:07:19.859Z,1002.02
2019-03-06T01:08:19.837Z,1002.01
2019-03-06T01:09:19.824Z,1002.03
2019-03-06T01:10:19.794Z,1002.04
2019-03-06T01:11:19.780Z,1002.07
2019-03-06T01:12:19.749Z,1002.00
2019-03-06T01:13:19.729Z,1001.98
2019-03-06T01:14:19.714Z,1001.98
2019-03-06T01:15:19.687Z,1002.00
2019-03-06T01:16:19.669Z,1001.96
2019-03-06T01:17:19.644Z,1001.98
2019-03-06T01:18:19.634Z,1001.95
2019-03-06T01:19:19.604Z,1001.92
2019-03-06T01:20:19.581Z,1001.94
2019-03-06T01:21:19.559Z,1001.90
2019-03-06T01:22:19.539Z,1001.84
2019-03-06T01:23:19.514Z,1001.84
2019-03-06T01:24:19.493Z,1001.80
2019-03-06T01:25:19.473Z,1001.81
2019-03-06T01:26:19.451Z,1001.78
2019-03-06T01:27:19.439Z,1001.72
2019-03-06T01:28:19.410Z,1001.71
2019-03-06T01:29:19.387Z,1001.70
2019-03-06T01:30:19.364Z,1001.65
2019-03-06T01:31:19.344Z,1001.65
2019-03-06T01:32:19.325Z,1001.66
2019-03-06T01:33:19.302Z,1001.60
2019-03-06T01:34:19.276Z,1001.62
2019-03-06T01:35:19.254Z,1001.64
2019-03-06T01:36:19.234Z,1001.61
2019-03-06T01:37:19.211Z,1001.61
2019-03-06T01:38:19.191Z,1001.61
2019-03-06T01:39:19.169Z,1001.57
2019-03-06T01:40:19.179Z,1001.55
2019-03-06T01:41:19.129Z,1001.56
2019-03-06T01:42:19.105Z,1001.56
2019-03-06T01:43:19.083Z,1001.55
2019-03-06T01:44:19.062Z,1001.54
2019-03-06T01:45:19.045Z,1001.53
2019-03-06T01:46:19.017Z,1001.53
2019-03-06T01:47:18.999Z,1001.54
2019-03-06T01:48:18.976Z,1001.53
2019-03-06T01:49:18.958Z,1001.51
2019-03-06T01:50:18.933Z,1001.49
2019-03-06T01:51:18.918Z,1001.47
2019-03-06T01:52:18.892Z,1001.47
2019-03-06T01:53:18.867Z,1001.50
2019-03-06T01:54:18.844Z,1001.49
2019-03-06T01:55:18.833Z,1001.52
2019-03-06T01:56:18.807Z,1001.51
2019-03-06T01:57:18.781Z,1001.50
2019-03-06T01:58:18.767Z,1001.47
2019-03-06T01:59:18.738Z,1001.47
2019-03-06T02:00:18.720Z,1001.39
2019-03-06T02:01:18.696Z,1001.40
2019-03-06T02:02:18.676Z,1001.41
2019-03-06T02:03:18.659Z,1001.41
2019-03-06T02:04:18.640Z,1001.40
2019-03-06T02:05:18.623Z,1001.47
2019-03-06T02:06:18.592Z,1001.44
2019-03-06T02:07:18.566Z,1001.41
2019-03-06T02:08:18.551Z,1001.42
2019-03-06T02:09:18.526Z,1001.44
2019-03-06T02:10:18.510Z,1001.40
2019-03-06T02:11:18.482Z,1001.36
2019-03-06T02:12:18.462Z,1001.34
2019-03-06T02:13:18.440Z,1001.29
2019-03-06T02:14:18.419Z,1001.26
2019-03-06T02:15:18.399Z,1001.24
2019-03-06T02:16:18.385Z,1001.23
2019-03-06T02:17:18.356Z,1001.20
2019-03-06T02:18:18.333Z,1001.18
2019-03-06T02:19:18.313Z,1001.13
2019-03-06T02:20:18.291Z,1001.14
2019-03-06T02:21:18.279Z,1001.15
2019-03-06T02:22:18.248Z,1001.18
2019-03-06T02:23:18.227Z,1001.19
2019-03-06T02:24:18.204Z,1001.15
2019-03-06T02:25:18.185Z,1001.12
2019-03-06T02:26:18.160Z,1001.11
2019-03-06T02:27:18.139Z,1001.07
2019-03-06T02:28:18.119Z,1001.01
2019-03-06T02:29:18.096Z,1001.02
2019-03-06T02:30:18.076Z,1000.97
2019-03-06T02:31:18.056Z,1000.95
2019-03-06T02:32:18.031Z,1000.93
2019-03-06T02:33:18.011Z,1000.91
2019-03-06T02:34:17.993Z,1000.92
2019-03-06T02:35:17.978Z,1000.91
2019-03-06T02:36:17.948Z,1000.90
2019-03-06T02:37:17.924Z,1000.90
2019-03-06T02:38:17.904Z,1000.86
2019-03-06T02:39:17.885Z,1000.84
2019-03-06T02:40:17.862Z,1000.84
2019-03-06T02:41:17.842Z,1000.83
2019-03-06T02:42:17.817Z,1000.81
2019-03-06T02:43:17.799Z,1000.87
2019-03-06T02:44:17.775Z,1000.80
2019-03-06T02:45:17.760Z,1000.83
2019-03-06T02:46:17.741Z,1000.76
2019-03-06T02:47:17.715Z,1000.72
2019-03-06T02:48:17.692Z,1000.66
2019-03-06T02:49:17.669Z,1000.66
2019-03-06T02:50:17.645Z,1000.64
2019-03-06T02:51:17.623Z,1000.67
2019-03-06T02:52:17.606Z,1000.64
2019-03-06T02:53:17.581Z,1000.61
2019-03-06T02:54:17.560Z,1000.55
2019-03-06T02:55:17.557Z,1000.56
2019-03-06T02:56:17.522Z,1000.52
2019-03-06T02:57:17.497Z,1000.55
2019-03-06T02:58:17.474Z,1000.52
2019-03-06T02:59:17.452Z,1000.52
2019-03-06T03:00:17.430Z,1000.50
2019-03-06T03:01:17.408Z,1000.54
2019-03-06T03:02:17.389Z,1000.58
2019-03-06T03:03:17.364Z,1000.62
2019-03-06T03:04:17.342Z,1000.64
2019-03-06T03:05:17.366Z,1000.65
2019-03-06T03:06:17.302Z,1000.62
2019-03-06T03:07:17.282Z,1000.55
2019-03-06T03:08:17.268Z,1000.58
2019-03-06T03:09:17.238Z,1000.57
2019-03-06T03:10:17.218Z,1000.52
2019-03-06T03:11:17.197Z,1000.55
2019-03-06T03:12:17.170Z,1000.56
2019-03-06T03:13:17.151Z,1000.58
2019-03-06T03:14:17.130Z,1000.49
2019-03-06T03:15:17.113Z,1000.40
2019-03-06T03:16:17.090Z,1000.39
2019-03-06T03:17:17.068Z,1000.38
2019-03-06T03:18:17.047Z,1000.38
2019-03-06T03:19:17.030Z,1000.39
2019-03-06T03:20:17.013Z,1000.33
2019-03-06T03:21:16.982Z,1000.32
2019-03-06T03:22:16.958Z,1000.34
2019-03-06T03:23:16.939Z,1000.32
2019-03-06T03:24:16.921Z,1000.26
2019-03-06T03:25:16.898Z,1000.23
2019-03-06T03:26:16.873Z,1000.26
2019-03-06T03:27:16.857Z,1000.24
2019-03-06T03:28:19.658Z,1000.19
2019-03-06T03:29:16.807Z,1000.16
2019-03-06T03:30:16.791Z,1000.22
2019-03-06T03:31:16.762Z,1000.16
2019-03-06T03:32:16.743Z,1000.21
2019-03-06T03:33:16.722Z,1000.12
2019-03-06T03:34:16.702Z,1000.04
2019-03-06T03:35:16.680Z,999.99
2019-03-06T03:36:16.657Z,999.97
2019-03-06T03:37:16.633Z,999.93
2019-03-06T03:38:16.612Z,999.98
2019-03-06T03:39:16.593Z,999.85
2019-03-06T03:40:16.580Z,999.86
2019-03-06T03:41:16.546Z,999.90
2019-03-06T03:42:16.529Z,999.84
2019-03-06T03:43:16.505Z,999.80
2019-03-06T03:44:16.485Z,999.77
2019-03-06T03:45:16.462Z,999.81
2019-03-06T03:46:16.439Z,999.77
2019-03-06T03:47:16.423Z,999.81
2019-03-06T03:48:16.398Z,999.83
2019-03-06T03:49:16.374Z,999.84
2019-03-06T03:50:16.353Z,999.86
2019-03-06T03:51:16.338Z,999.83
2019-03-06T03:52:16.308Z,999.89
2019-03-06T03:53:16.288Z,999.86
2019-03-06T03:54:16.265Z,999.89
2019-03-06T03:55:16.246Z,999.86
2019-03-06T03:56:16.222Z,999.89
2019-03-06T03:57:16.198Z,999.84
2019-03-06T03:58:16.180Z,999.81
2019-03-06T03:59:16.155Z,999.78
2019-03-06T04:00:16.139Z,999.73
2019-03-06T04:01:16.116Z,999.73
2019-03-06T04:02:16.093Z,999.68
2019-03-06T04:03:16.073Z,999.62
2019-03-06T04:04:16.050Z,999.63
2019-03-06T04:05:16.029Z,999.61
2019-03-06T04:06:16.083Z,999.53
2019-03-06T04:07:15.985Z,999.51
2019-03-06T04:08:15.960Z,999.57
2019-03-06T04:09:15.957Z,999.51
2019-03-06T04:10:15.917Z,999.51
2019-03-06T04:11:15.906Z,999.54
2019-03-06T04:12:15.876Z,999.56
2019-03-06T04:13:15.857Z,999.57
2019-03-06T04:14:15.835Z,999.58
2019-03-06T04:15:15.846Z,999.54
2019-03-06T04:16:15.790Z,999.56
2019-03-06T04:17:15.761Z,999.61
2019-03-06T04:18:15.742Z,999.53
2019-03-06T04:19:15.723Z,999.52
2019-03-06T04:20:15.739Z,999.53
2019-03-06T04:21:15.679Z,999.57
2019-03-06T04:22:15.658Z,999.52
2019-03-06T04:23:15.645Z,999.54
2019-03-06T04:24:15.609Z,999.58
2019-03-06T04:25:15.589Z,999.56
2019-03-06T04:26:15.568Z,999.59
2019-03-06T04:27:15.547Z,999.49
2019-03-06T04:28:15.528Z,999.55
2019-03-06T04:29:15.511Z,999.61
2019-03-06T04:30:15.491Z,999.59
2019-03-06T04:31:15.466Z,999.59
2019-03-06T04:32:15.442Z,999.63
2019-03-06T04:33:15.427Z,999.61
2019-03-06T04:34:15.394Z,999.52
2019-03-06T04:35:15.378Z,999.62
2019-03-06T04:36:15.351Z,999.57
2019-03-06T04:37:15.328Z,999.58
2019-03-06T04:38:15.307Z,999.60
2019-03-06T04:39:15.284Z,999.60
2019-03-06T04:40:15.264Z,999.60
2019-03-06T04:41:15.243Z,999.65
2019-03-06T04:42:15.222Z,999.55
2019-03-06T04:43:15.201Z,999.57
2019-03-06T04:44:15.179Z,999.58
2019-03-06T04:45:15.154Z,999.58
2019-03-06T04:46:15.133Z,999.56
2019-03-06T04:47:15.111Z,999.57
2019-03-06T04:48:15.089Z,999.56
2019-03-06T04:49:15.067Z,999.57
2019-03-06T04:50:15.044Z,999.56
2019-03-06T04:51:15.027Z,999.55
2019-03-06T04:52:15.007Z,999.52
2019-03-06T04:53:14.984Z,999.49
2019-03-06T04:54:14.964Z,999.51
2019-03-06T04:55:14.949Z,999.47
2019-03-06T04:56:14.927Z,999.44
2019-03-06T04:57:14.899Z,999.41
2019-03-06T04:58:14.875Z,999.41
2019-03-06T04:59:14.853Z,999.32
2019-03-06T05:00:14.838Z,999.31
2019-03-06T05:01:14.812Z,999.32
2019-03-06T05:02:14.796Z,999.29
2019-03-06T05:03:14.769Z,999.22
2019-03-06T05:04:14.746Z,999.16
2019-03-06T05:05:14.724Z,999.21
2019-03-06T05:06:14.704Z,999.22
2019-03-06T05:07:14.683Z,999.19
2019-03-06T05:08:14.659Z,999.19
2019-03-06T05:09:14.637Z,999.16
2019-03-06T05:10:14.619Z,999.15
2019-03-06T05:11:14.594Z,999.13
2019-03-06T05:12:14.575Z,999.09
2019-03-06T05:13:14.552Z,999.09
2019-03-06T05:14:14.535Z,999.06
2019-03-06T05:15:14.514Z,999.01
2019-03-06T05:16:14.486Z,999.02
2019-03-06T05:17:14.475Z,999.00
2019-03-06T05:18:14.441Z,999.00
2019-03-06T05:19:14.424Z,998.93
2019-03-06T05:20:14.400Z,998.94
2019-03-06T05:21:14.384Z,998.93
2019-03-06T05:22:14.357Z,998.96
2019-03-06T05:23:14.334Z,998.96
2019-03-06T05:24:14.317Z,998.96
2019-03-06T05:25:14.290Z,999.02
2019-03-06T05:26:14.283Z,999.03
2019-03-06T05:27:14.254Z,999.01
2019-03-06T05:28:14.233Z,999.00
2019-03-06T05:29:14.203Z,999.00
2019-03-06T05:30:14.233Z,998.97
2019-03-06T05:31:14.164Z,998.97
2019-03-06T05:32:14.143Z,998.94
2019-03-06T05:33:14.119Z,998.94
2019-03-06T05:34:14.103Z,998.88
2019-03-06T05:35:14.087Z,998.84
2019-03-06T05:36:14.060Z,998.80
2019-03-06T05:37:14.037Z,998.77
2019-03-06T05:38:14.012Z,998.80
2019-03-06T05:39:13.989Z,998.78
2019-03-06T05:40:13.975Z,998.77
2019-03-06T05:41:13.959Z,998.77
2019-03-06T05:42:13.923Z,998.75
2019-03-06T05:43:13.904Z,998.76
2019-03-06T05:44:13.881Z,998.77
2019-03-06T05:45:15.775Z,998.74
2019-03-06T05:46:13.841Z,998.77
2019-03-06T05:47:13.817Z,998.74
2019-03-06T05:48:13.806Z,998.73
2019-03-06T05:49:13.775Z,998.67
2019-03-06T05:50:13.753Z,998.69
2019-03-06T05:51:13.731Z,998.69
2019-03-06T05:52:13.717Z,998.62
2019-03-06T05:53:13.688Z,998.57
2019-03-06T05:54:13.668Z,998.58
2019-03-06T05:55:13.652Z,998.57
2019-03-06T05:56:13.626Z,998.52
2019-03-06T05:57:13.604Z,998.47
2019-03-06T05:58:13.582Z,998.52
2019-03-06T05:59:13.560Z,998.55
2019-03-06T06:00:13.543Z,998.54
2019-03-06T06:01:13.516Z,998.54
2019-03-06T06:02:13.495Z,998.49
2019-03-06T06:03:13.475Z,998.43
2019-03-06T06:04:13.454Z,998.40
2019-03-06T06:05:13.432Z,998.35
2019-03-06T06:06:13.408Z,998.33
2019-03-06T06:07:13.406Z,998.23
2019-03-06T06:08:13.366Z,998.26
2019-03-06T06:09:13.350Z,998.24
2019-03-06T06:10:13.324Z,998.20
2019-03-06T06:11:13.303Z,998.15
2019-03-06T06:12:13.284Z,998.14
2019-03-06T06:13:13.262Z,998.13
2019-03-06T06:14:13.239Z,998.13
2019-03-06T06:15:13.216Z,998.13
2019-03-06T06:16:13.198Z,998.14
2019-03-06T06:17:13.174Z,998.14
2019-03-06T06:18:13.206Z,998.13
2019-03-06T06:19:13.132Z,998.10
2019-03-06T06:20:13.113Z,998.06
2019-03-06T06:21:13.087Z,998.03
2019-03-06T06:22:13.069Z,998.00
2019-03-06T06:23:13.048Z,997.98
2019-03-06T06:24:13.031Z,997.98
2019-03-06T06:25:13.006Z,998.01
2019-03-06T06:26:12.986Z,998.01
2019-03-06T06:27:12.960Z,998.02
2019-03-06T06:28:12.939Z,998.02
2019-03-06T06:29:12.916Z,998.03
2019-03-06T06:30:12.896Z,998.01
2019-03-06T06:31:12.875Z,998.04
2019-03-06T06:32:12.857Z,998.09
2019-03-06T06:33:12.833Z,998.12
2019-03-06T06:34:12.812Z,998.10
2019-03-06T06:35:12.795Z,998.05
2019-03-06T06:36:12.775Z,998.01
2019-03-06T06:37:12.747Z,998.05
2019-03-06T06:38:12.728Z,997.99
2019-03-06T06:39:12.705Z,998.01
2019-03-06T06:40:12.684Z,997.98
2019-03-06T06:41:12.665Z,998.00
2019-03-06T06:42:12.639Z,997.99
2019-03-06T06:43:12.624Z,998.04
2019-03-06T06:44:12.598Z,998.03
2019-03-06T06:45:12.581Z,998.02
2019-03-06T06:46:12.555Z,997.96
2019-03-06T06:47:12.533Z,997.96
2019-03-06T06:48:12.524Z,997.89
2019-03-06T06:49:12.494Z,997.88
2019-03-06T06:50:12.479Z,997.82
2019-03-06T06:51:12.450Z,997.81
2019-03-06T06:52:12.431Z,997.83
2019-03-06T06:53:12.422Z,997.81
2019-03-06T06:54:12.387Z,997.80
2019-03-06T06:55:12.379Z,997.80
2019-03-06T06:56:12.342Z,997.81
2019-03-06T06:57:12.323Z,997.79
2019-03-06T06:58:12.303Z,997.72
2019-03-06T06:59:12.281Z,997.77
2019-03-06T07:00:12.264Z,997.79
2019-03-06T07:01:12.240Z,997.72
2019-03-06T07:02:12.219Z,997.71
2019-03-06T07:03:12.197Z,997.66
2019-03-06T07:04:12.175Z,997.66
2019-03-06T07:05:12.153Z,997.58
2019-03-06T07:06:12.133Z,997.59
2019-03-06T07:07:12.116Z,997.57
2019-03-06T07:08:12.090Z,997.59
2019-03-06T07:09:12.069Z,997.60
2019-03-06T07:10:12.044Z,997.57
2019-03-06T07:11:12.027Z,997.58
2019-03-06T07:12:12.014Z,997.57
2019-03-06T07:13:11.985Z,997.56
2019-03-06T07:14:11.961Z,997.52
2019-03-06T07:15:11.939Z,997.54
2019-03-06T07:16:11.920Z,997.49
2019-03-06T07:17:11.899Z,997.52
2019-03-06T07:18:11.895Z,997.50
2019-03-06T07:19:11.856Z,997.49
2019-03-06T07:20:11.835Z,997.48
2019-03-06T07:21:11.817Z,997.44
2019-03-06T07:22:11.794Z,997.42
2019-03-06T07:23:11.773Z,997.40
2019-03-06T07:24:11.753Z,997.40
2019-03-06T07:25:11.733Z,997.37
2019-03-06T07:26:11.710Z,997.34
2019-03-06T07:27:11.691Z,997.34
2019-03-06T07:28:11.673Z,997.33
2019-03-06T07:29:11.658Z,997.33
2019-03-06T07:30:11.626Z,997.32
2019-03-06T07:31:11.605Z,997.26
2019-03-06T07:32:11.584Z,997.33
2019-03-06T07:33:11.566Z,997.31
2019-03-06T07:34:11.543Z,997.28
2019-03-06T07:35:11.525Z,997.26
2019-03-06T07:36:11.500Z,997.21
2019-03-06T07:37:11.481Z,997.22
2019-03-06T07:38:11.464Z,997.20
2019-03-06T07:39:11.443Z,997.22
2019-03-06T07:40:11.418Z,997.20
2019-03-06T07:41:11.405Z,997.21
2019-03-06T07:42:11.381Z,997.21
2019-03-06T07:43:11.359Z,997.16
2019-03-06T07:44:11.335Z,997.15
2019-03-06T07:45:11.316Z,997.18
2019-03-06T07:46:11.298Z,997.14
2019-03-06T07:47:11.279Z,997.23
2019-03-06T07:48:11.256Z,997.19
2019-03-06T07:49:11.235Z,997.18
2019-03-06T07:50:11.211Z,997.18
2019-03-06T07:51:11.202Z,997.15
2019-03-06T07:52:11.181Z,997.18
2019-03-06T07:53:11.151Z,997.18
2019-03-06T07:54:11.132Z,997.19
2019-03-06T07:55:11.133Z,997.13
2019-03-06T07:56:11.091Z,997.14
2019-03-06T07:57:11.070Z,997.16
2019-03-06T07:58:11.051Z,997.29
2019-03-06T07:59:11.038Z,997.14
2019-03-06T08:00:11.021Z,997.21
2019-03-06T08:01:17.032Z,997.15
2019-03-06T08:02:10.969Z,997.16
2019-03-06T08:03:10.951Z,997.15
2019-03-06T08:04:10.936Z,997.16
2019-03-06T08:05:10.906Z,997.21
2019-03-06T08:06:10.890Z,997.19
2019-03-06T08:07:10.874Z,997.19
2019-03-06T08:08:10.844Z,997.22
2019-03-06T08:09:10.831Z,997.17
2019-03-06T08:10:10.809Z,997.12
2019-03-06T08:11:10.786Z,997.10
2019-03-06T08:12:10.776Z,997.11
2019-03-06T08:13:10.743Z,997.09
2019-03-06T08:14:10.731Z,997.09
2019-03-06T08:15:10.701Z,997.07
2019-03-06T08:16:10.683Z,997.04
2019-03-06T08:17:10.663Z,997.02
2019-03-06T08:18:10.650Z,996.98
2019-03-06T08:19:10.619Z,997.00
2019-03-06T08:20:10.608Z,996.99
2019-03-06T08:21:10.580Z,996.96
2019-03-06T08:22:10.558Z,996.99
2019-03-06T08:23:10.539Z,996.95
2019-03-06T08:24:10.521Z,996.95
2019-03-06T08:25:10.510Z,996.94
2019-03-06T08:26:10.493Z,996.92
2019-03-06T08:27:10.464Z,996.85
2019-03-06T08:28:10.437Z,996.95
2019-03-06T08:29:10.418Z,996.87
2019-03-06T08:30:10.396Z,996.85
2019-03-06T08:31:10.379Z,996.83
2019-03-06T08:32:10.356Z,996.85
2019-03-06T08:33:17.989Z,996.84
2019-03-06T08:34:10.316Z,996.88
2019-03-06T08:35:10.300Z,996.85
2019-03-06T08:36:10.279Z,996.87
2019-03-06T08:37:10.265Z,996.82
2019-03-06T08:38:10.237Z,996.79
2019-03-06T08:39:10.229Z,996.78
2019-03-06T08:40:10.198Z,996.77
2019-03-06T08:41:10.181Z,996.71
2019-03-06T08:42:10.161Z,996.69
2019-03-06T08:43:10.141Z,996.65
2019-03-06T08:44:10.119Z,996.65
2019-03-06T08:45:10.098Z,996.63
2019-03-06T08:46:10.079Z,996.64
2019-03-06T08:47:10.061Z,996.56
2019-03-06T08:48:10.047Z,996.62
2019-03-06T08:49:10.020Z,996.55
2019-03-06T08:50:10.009Z,996.60
2019-03-06T08:51:09.985Z,996.54
2019-03-06T08:52:09.964Z,996.54
2019-03-06T08:53:09.943Z,996.53
2019-03-06T08:54:09.929Z,996.52
2019-03-06T08:55:11.015Z,996.47
2019-03-06T08:56:09.884Z,996.49
2019-03-06T08:57:09.870Z,996.44
2019-03-06T08:58:09.843Z,996.46
2019-03-06T08:59:09.827Z,996.45
2019-03-06T09:00:09.819Z,996.46
2019-03-06T09:01:09.788Z,996.42
2019-03-06T09:02:15.458Z,996.36
2019-03-06T09:03:09.748Z,996.41
2019-03-06T09:04:09.731Z,996.40
2019-03-06T09:05:09.727Z,996.37
2019-03-06T09:06:09.695Z,996.27
2019-03-06T09:07:09.667Z,996.29
2019-03-06T09:08:09.649Z,996.22
2019-03-06T09:09:09.639Z,996.27
2019-03-06T09:10:09.628Z,996.20
2019-03-06T09:11:09.595Z,996.25
2019-03-06T09:12:09.580Z,996.33
2019-03-06T09:13:09.552Z,996.23
2019-03-06T09:14:09.533Z,996.23
2019-03-06T09:15:09.537Z,996.23
2019-03-06T09:16:09.496Z,996.18
2019-03-06T09:17:09.473Z,996.20
2019-03-06T09:18:09.602Z,996.13
2019-03-06T09:19:09.435Z,996.16
2019-03-06T09:20:09.418Z,996.15
2019-03-06T09:21:09.397Z,996.13
2019-03-06T09:22:09.375Z,996.11
2019-03-06T09:23:09.356Z,996.10
2019-03-06T09:24:09.338Z,996.16
2019-03-06T09:25:09.317Z,996.14
2019-03-06T09:26:09.306Z,996.12
2019-03-06T09:27:09.290Z,996.06
2019-03-06T09:28:09.258Z,996.09
2019-03-06T09:29:09.255Z,996.10
2019-03-06T09:30:15.765Z,996.13
2019-03-06T09:31:09.199Z,996.08
2019-03-06T09:32:09.181Z,996.07
2019-03-06T09:33:09.160Z,996.00
2019-03-06T09:34:09.140Z,995.94
2019-03-06T09:35:09.130Z,995.96
2019-03-06T09:36:09.109Z,995.90
2019-03-06T09:37:09.085Z,995.91
2019-03-06T09:38:11.277Z,995.82
2019-03-06T09:39:09.046Z,995.85
2019-03-06T09:40:09.027Z,995.84
2019-03-06T09:41:09.008Z,995.85
2019-03-06T09:42:08.988Z,995.83
2019-03-06T09:43:08.967Z,995.75
2019-03-06T09:44:08.950Z,995.76
2019-03-06T09:45:08.933Z,995.75
2019-03-06T09:46:08.920Z,995.79
2019-03-06T09:47:08.901Z,995.76
2019-03-06T09:48:08.875Z,995.71
2019-03-06T09:49:11.812Z,995.65
2019-03-06T09:50:08.845Z,995.68
2019-03-06T09:51:08.818Z,995.66
2019-03-06T09:52:08.801Z,995.66
2019-03-06T09:53:08.788Z,995.64
2019-03-06T09:54:08.769Z,995.60
2019-03-06T09:55:08.748Z,995.55
2019-03-06T09:56:08.728Z,995.53
2019-03-06T09:57:08.708Z,995.45
2019-03-06T09:58:08.689Z,995.46
2019-03-06T09:59:08.673Z,995.44
2019-03-06T10:00:08.660Z,995.38
2019-03-06T10:01:08.636Z,995.36
2019-03-06T10:02:08.634Z,995.30
2019-03-06T10:03:08.610Z,995.26
2019-03-06T10:04:08.583Z,995.29
2019-03-06T10:05:08.575Z,995.21
2019-03-06T10:06:08.563Z,995.17
2019-03-06T10:07:08.534Z,995.22
2019-03-06T10:08:08.515Z,995.24
2019-03-06T10:09:08.498Z,995.19
2019-03-06T10:10:08.475Z,995.20
2019-03-06T10:11:08.462Z,995.17
2019-03-06T10:12:08.441Z,995.12
2019-03-06T10:13:08.423Z,995.10
2019-03-06T10:14:08.405Z,995.19
2019-03-06T10:15:08.391Z,995.08
2019-03-06T10:16:08.386Z,995.03
2019-03-06T10:17:08.355Z,995.01
2019-03-06T10:18:08.334Z,994.94
2019-03-06T10:19:08.320Z,994.95
2019-03-06T10:20:08.306Z,994.92
2019-03-06T10:21:08.284Z,994.96
2019-03-06T10:22:08.268Z,994.99
2019-03-06T10:23:08.479Z,994.89
2019-03-06T10:24:08.232Z,995.01
2019-03-06T10:25:08.215Z,995.02
2019-03-06T10:26:08.197Z,995.00
2019-03-06T10:27:08.189Z,994.89
2019-03-06T10:28:08.161Z,994.88
2019-03-06T10:29:08.155Z,994.83
2019-03-06T10:30:08.132Z,994.85
2019-03-06T10:31:08.120Z,994.72
2019-03-06T10:32:08.100Z,994.81
2019-03-06T10:33:08.080Z,994.75
2019-03-06T10:34:08.075Z,994.77
2019-03-06T10:35:08.047Z,994.77
2019-03-06T10:36:08.032Z,994.72
2019-03-06T10:38:08.308Z,994.81
2019-03-06T10:39:07.984Z,994.66
2019-03-06T10:40:07.970Z,994.54
2019-03-06T10:41:07.957Z,994.70
2019-03-06T10:42:07.937Z,994.65
2019-03-06T10:43:07.923Z,994.61
2019-03-06T10:44:07.907Z,994.58
2019-03-06T10:45:07.900Z,994.57
2019-03-06T10:46:07.877Z,994.50
2019-03-06T10:47:07.864Z,994.48
2019-03-06T10:48:07.852Z,994.50
2019-03-06T10:49:07.833Z,994.59
2019-03-06T10:50:07.814Z,994.50
2019-03-06T10:51:07.801Z,994.45
2019-03-06T10:52:07.799Z,994.41
2019-03-06T10:53:07.770Z,994.32
2019-03-06T10:54:07.753Z,994.42
2019-03-06T10:55:07.737Z,994.43
2019-03-06T10:56:07.723Z,994.39
2019-03-06T10:57:07.708Z,994.34
2019-03-06T10:58:07.693Z,994.28
2019-03-06T10:59:07.673Z,994.34
2019-03-06T11:00:07.667Z,994.27
2019-03-06T11:01:07.651Z,994.35
2019-03-06T11:02:07.636Z,994.31
2019-03-06T11:03:07.613Z,994.39
2019-03-06T11:04:07.597Z,994.39
2019-03-06T11:05:07.577Z,994.35
2019-03-06T11:06:07.562Z,994.41
2019-03-06T11:07:07.545Z,994.40
2019-03-06T11:08:07.527Z,994.35
2019-03-06T11:09:07.522Z,994.38
2019-03-06T11:10:07.501Z,994.34
2019-03-06T11:11:07.477Z,994.22
2019-03-06T11:12:07.483Z,994.24
2019-03-06T11:13:08.597Z,994.23
2019-03-06T11:14:07.428Z,994.25
2019-03-06T11:15:07.411Z,994.29
2019-03-06T11:16:07.408Z,994.07
2019-03-06T11:17:07.381Z,994.23
2019-03-06T11:18:07.383Z,994.15
2019-03-06T11:19:07.351Z,994.12
2019-03-06T11:20:07.326Z,994.16
2019-03-06T11:21:07.313Z,994.06
2019-03-06T11:22:07.298Z,994.06
2019-03-06T11:23:07.285Z,994.07
2019-03-06T11:24:07.269Z,993.98
2019-03-06T11:25:07.246Z,994.02
2019-03-06T11:26:07.233Z,994.01
2019-03-06T11:27:07.216Z,994.00
2019-03-06T11:28:07.197Z,993.88
2019-03-06T11:29:07.225Z,993.96
2019-03-06T11:30:07.162Z,993.90
2019-03-06T11:31:07.159Z,993.88
2019-03-06T11:32:07.135Z,993.91
2019-03-06T11:33:07.121Z,993.88
2019-03-06T11:34:07.105Z,993.97
2019-03-06T11:35:07.094Z,993.89
2019-03-06T11:36:07.067Z,993.93
2019-03-06T11:37:07.051Z,993.85
2019-03-06T11:38:07.040Z,993.94
2019-03-06T11:39:07.020Z,993.91
2019-03-06T11:40:07.006Z,993.68
2019-03-06T11:41:06.996Z,993.89
2019-03-06T11:42:06.973Z,993.85
2019-03-06T11:43:06.958Z,993.79
2019-03-06T11:44:06.952Z,993.83
2019-03-06T11:45:06.929Z,993.79
2019-03-06T11:46:06.913Z,993.79
2019-03-06T11:47:06.896Z,993.75
2019-03-06T11:48:06.883Z,993.76
2019-03-06T11:49:06.867Z,993.75
2019-03-06T11:50:06.849Z,993.69
2019-03-06T11:51:06.840Z,993.65
2019-03-06T11:52:06.817Z,993.60
2019-03-06T11:53:06.801Z,993.71
2019-03-06T11:54:06.786Z,993.58
2019-03-06T11:55:07.440Z,993.58
2019-03-06T11:56:06.762Z,993.64
2019-03-06T11:57:06.743Z,993.57
2019-03-06T11:58:06.730Z,993.58
2019-03-06T11:59:06.716Z,993.57
2019-03-06T12:00:06.701Z,993.55
2019-03-06T12:01:06.681Z,993.52
2019-03-06T12:02:06.671Z,993.47
2019-03-06T12:03:06.656Z,993.43
2019-03-06T12:04:06.636Z,993.31
2019-03-06T12:05:06.627Z,993.38
2019-03-06T12:06:06.608Z,993.40
2019-03-06T12:07:06.592Z,993.28
2019-03-06T12:08:06.580Z,993.26
2019-03-06T12:09:06.560Z,993.25
2019-03-06T12:10:06.553Z,993.12
2019-03-06T12:11:06.531Z,993.28
2019-03-06T12:12:06.526Z,993.22
2019-03-06T12:13:06.500Z,993.18
2019-03-06T12:14:06.481Z,993.22
2019-03-06T12:15:06.470Z,993.12
2019-03-06T12:16:06.457Z,993.07
2019-03-06T12:17:06.443Z,993.09
2019-03-06T12:18:06.420Z,993.10
2019-03-06T12:19:06.413Z,993.00
2019-03-06T12:20:08.452Z,993.02
2019-03-06T12:21:06.377Z,992.93
2019-03-06T12:22:06.369Z,992.86